Terminal Aerodrome Forecast
Issued by NWS

Home | Current Version | Previous Version | Text Only | Print | Product List | Glossary On
Versions: 1 2 3 4 5 6 7 8 9 10 11 12 13 14 15
000
FTUS46 KLOX 292300
TAFSBP
TAF
KSBP 292320Z 3000/3024 31012KT P6SM SKC
     FM300400 VRB03KT P6SM SKC
     FM301900 31012KT P6SM SKC=

USA.gov is the U.S. government's official web portal to all federal, state and local government web resources and services.